createdAt,value
2023-03-12T00:02:22.359Z,0.70
2023-03-12T00:04:49.089Z,1.00
2023-03-12T00:07:15.907Z,0.98
2023-03-12T00:09:42.582Z,1.25
2023-03-12T00:12:09.612Z,0.80
2023-03-12T00:14:36.769Z,1.10
2023-03-12T00:17:04.024Z,0.70
2023-03-12T00:19:30.889Z,0.80
2023-03-12T00:21:57.624Z,0.88
2023-03-12T00:24:24.637Z,1.20
2023-03-12T00:26:51.413Z,1.10
2023-03-12T00:29:18.085Z,1.77
2023-03-12T00:31:44.900Z,1.25
2023-03-12T00:34:11.799Z,1.33
2023-03-12T00:36:40.717Z,1.15
2023-03-12T00:39:08.534Z,1.38
2023-03-12T00:41:35.324Z,1.42
2023-03-12T00:44:02.032Z,1.70
2023-03-12T00:46:28.920Z,1.15
2023-03-12T00:48:55.672Z,2.30
2023-03-12T00:51:22.781Z,1.55
2023-03-12T00:53:49.591Z,2.10
2023-03-12T00:56:16.732Z,1.90
2023-03-12T00:58:43.703Z,2.00
2023-03-12T01:01:11.056Z,2.13
2023-03-12T01:03:38.066Z,2.15
2023-03-12T01:06:05.379Z,1.92
2023-03-12T01:08:33.363Z,1.70
2023-03-12T01:11:00.675Z,1.30
2023-03-12T01:13:27.927Z,1.85
2023-03-12T01:15:54.696Z,2.35
2023-03-12T01:18:21.689Z,2.13
2023-03-12T01:20:48.702Z,2.35
2023-03-12T01:23:16.213Z,2.45
2023-03-12T01:25:43.503Z,2.88
2023-03-12T01:28:10.530Z,1.90
2023-03-12T01:30:37.339Z,1.77
2023-03-12T01:33:04.487Z,1.75
2023-03-12T01:35:35.785Z,2.03
2023-03-12T01:38:02.514Z,2.35
2023-03-12T01:40:29.317Z,2.15
2023-03-12T01:42:58.601Z,1.50
2023-03-12T01:46:10.894Z,1.58
2023-03-12T01:48:42.778Z,1.83
2023-03-12T01:51:12.451Z,2.17
2023-03-12T01:53:42.939Z,2.25
2023-03-12T01:56:10.455Z,2.50
2023-03-12T01:58:40.386Z,1.63
2023-03-12T02:01:07.488Z,1.40
2023-03-12T02:03:35.419Z,1.77
2023-03-12T02:06:06.938Z,1.50
2023-03-12T02:08:38.128Z,2.42
2023-03-12T02:11:04.937Z,1.27
2023-03-12T02:13:32.599Z,1.10
2023-03-12T02:15:59.653Z,2.20
2023-03-12T02:18:27.231Z,1.90
2023-03-12T02:21:09.660Z,2.53
2023-03-12T02:23:54.843Z,2.70
2023-03-12T02:26:24.583Z,2.78
2023-03-12T02:28:51.897Z,2.05
2023-03-12T02:31:23.330Z,2.90
2023-03-12T02:33:52.862Z,2.75
2023-03-12T02:36:20.733Z,2.03
2023-03-12T02:38:53.060Z,2.53
2023-03-12T02:41:24.105Z,2.33
2023-03-12T02:44:18.387Z,2.25
2023-03-12T02:46:53.622Z,1.95
2023-03-12T02:49:21.969Z,1.67
2023-03-12T02:51:49.662Z,1.92
2023-03-12T02:54:18.702Z,2.30
2023-03-12T02:56:45.535Z,1.52
2023-03-12T02:59:14.370Z,2.83
2023-03-12T03:01:45.037Z,1.65
2023-03-12T03:04:13.042Z,1.67
2023-03-12T03:06:42.959Z,1.08
2023-03-12T03:09:09.844Z,2.20
2023-03-12T03:11:36.793Z,1.10
2023-03-12T03:14:06.992Z,1.40
2023-03-12T03:16:34.566Z,1.17
2023-03-12T03:19:01.504Z,1.40
2023-03-12T03:21:28.412Z,1.17
2023-03-12T03:23:55.156Z,1.00
2023-03-12T03:26:23.483Z,1.42
2023-03-12T03:28:50.871Z,1.42
2023-03-12T03:31:18.458Z,1.27
2023-03-12T03:33:46.162Z,1.30
2023-03-12T03:36:15.059Z,1.38
2023-03-12T03:38:50.659Z,1.83
2023-03-12T03:41:20.053Z,2.05
2023-03-12T03:43:47.860Z,2.03
2023-03-12T03:46:17.593Z,1.70
2023-03-12T03:48:50.917Z,2.13
2023-03-12T03:51:17.879Z,2.50
2023-03-12T03:53:47.765Z,3.08
2023-03-12T03:56:16.433Z,2.97
2023-03-12T03:58:49.117Z,2.67
2023-03-12T04:01:18.529Z,2.95
2023-03-12T04:03:46.742Z,3.85
2023-03-12T04:06:13.844Z,3.10
2023-03-12T04:08:41.005Z,3.20
2023-03-12T04:11:15.340Z,3.45
2023-03-12T04:13:43.139Z,3.10
2023-03-12T04:16:12.028Z,3.30
2023-03-12T04:18:40.210Z,2.63
2023-03-12T04:21:10.233Z,3.88
2023-03-12T04:23:37.710Z,3.40
2023-03-12T04:26:05.497Z,2.40
2023-03-12T04:28:32.827Z,2.83
2023-03-12T04:31:03.962Z,2.33
2023-03-12T04:33:38.190Z,3.13
2023-03-12T04:36:06.395Z,3.35
2023-03-12T04:38:35.116Z,3.38
2023-03-12T04:41:11.589Z,3.15
2023-03-12T04:43:43.154Z,3.13
2023-03-12T04:46:10.437Z,4.53
2023-03-12T04:48:38.785Z,4.38
2023-03-12T04:51:06.851Z,4.82
2023-03-12T04:53:34.123Z,4.18
2023-03-12T04:56:02.509Z,5.45
2023-03-12T04:58:30.470Z,4.90
2023-03-12T05:00:57.387Z,4.95
2023-03-12T05:03:24.216Z,4.65
2023-03-12T05:05:51.174Z,4.65
2023-03-12T05:08:18.073Z,4.70
2023-03-12T05:10:45.934Z,4.78
2023-03-12T05:13:17.977Z,5.10
2023-03-12T05:15:47.568Z,5.00
2023-03-12T05:18:14.996Z,4.88
2023-03-12T05:20:41.854Z,5.55
2023-03-12T05:23:08.758Z,4.22
2023-03-12T05:25:40.399Z,4.70
2023-03-12T05:28:08.142Z,4.78
2023-03-12T05:30:36.279Z,4.90
2023-03-12T05:33:03.156Z,5.25
2023-03-12T05:35:31.446Z,4.22
2023-03-12T05:37:58.209Z,4.13
2023-03-12T05:40:24.936Z,4.82
2023-03-12T05:42:53.150Z,4.68
2023-03-12T05:45:21.390Z,4.60
2023-03-12T05:47:51.733Z,4.37
2023-03-12T05:50:19.162Z,4.53
2023-03-12T05:52:46.230Z,5.10
2023-03-12T05:55:12.976Z,4.82
2023-03-12T05:57:39.665Z,4.57
2023-03-12T06:00:07.410Z,4.90
2023-03-12T06:02:40.079Z,6.00
2023-03-12T06:05:09.253Z,4.88
2023-03-12T06:07:36.209Z,5.85
2023-03-12T06:10:03.539Z,5.50
2023-03-12T06:12:30.278Z,4.40
2023-03-12T06:14:58.171Z,5.55
2023-03-12T06:17:24.904Z,4.82
2023-03-12T06:19:53.938Z,5.18
2023-03-12T06:22:21.142Z,4.03
2023-03-12T06:24:49.415Z,4.60
2023-03-12T06:27:17.934Z,5.03
2023-03-12T06:29:46.993Z,5.80
2023-03-12T06:32:14.026Z,5.65
2023-03-12T06:34:40.975Z,5.18
2023-03-12T06:37:07.702Z,5.60
2023-03-12T06:39:34.647Z,4.97
2023-03-12T06:42:01.555Z,5.22
2023-03-12T06:44:28.309Z,6.05
2023-03-12T06:46:55.021Z,5.88
2023-03-12T06:49:22.356Z,5.93
2023-03-12T06:51:49.026Z,5.53
2023-03-12T06:54:15.872Z,5.00
2023-03-12T06:56:43.123Z,5.25
2023-03-12T06:59:10.026Z,5.20
2023-03-12T07:01:36.723Z,5.75
2023-03-12T07:04:03.544Z,5.88
2023-03-12T07:06:30.220Z,5.80
2023-03-12T07:08:56.930Z,6.40
2023-03-12T07:11:23.597Z,5.93
2023-03-12T07:13:51.614Z,5.57
2023-03-12T07:16:18.430Z,6.68
2023-03-12T07:18:45.218Z,6.53
2023-03-12T07:21:12.204Z,6.63
2023-03-12T07:23:38.920Z,5.82
2023-03-12T07:26:06.052Z,6.47
2023-03-12T07:28:32.920Z,6.45
2023-03-12T07:31:05.879Z,6.88
2023-03-12T07:33:33.179Z,5.95
2023-03-12T07:36:00.453Z,6.60
2023-03-12T07:38:27.735Z,5.63
2023-03-12T07:40:56.307Z,5.53
2023-03-12T07:43:24.633Z,5.75
2023-03-12T07:45:54.213Z,5.85
2023-03-12T07:48:22.171Z,5.60
2023-03-12T07:50:49.013Z,4.88
2023-03-12T07:53:16.035Z,6.03
2023-03-12T07:55:46.158Z,6.28
2023-03-12T07:58:13.542Z,6.50
2023-03-12T08:00:40.521Z,5.57
2023-03-12T08:03:07.941Z,5.63
2023-03-12T08:05:35.102Z,5.28
2023-03-12T08:08:01.992Z,5.93
2023-03-12T08:10:28.876Z,5.18
2023-03-12T08:12:55.707Z,4.88
2023-03-12T08:15:22.485Z,5.03
2023-03-12T08:17:49.180Z,5.60
2023-03-12T08:20:15.987Z,4.55
2023-03-12T08:22:42.701Z,4.93
2023-03-12T08:25:10.156Z,4.53
2023-03-12T08:27:37.203Z,4.78
2023-03-12T08:30:06.501Z,4.13
2023-03-12T08:32:33.595Z,4.18
2023-03-12T08:35:00.457Z,4.30
2023-03-12T08:37:27.129Z,5.30
2023-03-12T08:39:53.818Z,4.65
2023-03-12T08:42:20.451Z,4.43
2023-03-12T08:44:47.239Z,3.58
2023-03-12T08:47:13.907Z,4.70
2023-03-12T08:49:40.590Z,4.50
2023-03-12T08:52:07.432Z,3.95
2023-03-12T08:54:34.231Z,3.90
2023-03-12T08:57:00.889Z,3.20
2023-03-12T08:59:27.595Z,3.72
2023-03-12T09:01:54.399Z,3.17
2023-03-12T09:04:21.700Z,3.47
2023-03-12T09:06:48.533Z,3.95
2023-03-12T09:09:15.527Z,3.70
2023-03-12T09:11:42.669Z,3.42
2023-03-12T09:16:57.847Z,4.18
2023-03-12T09:19:24.704Z,3.47
2023-03-12T09:21:51.491Z,3.40
2023-03-12T09:24:18.245Z,3.60
2023-03-12T09:26:45.012Z,4.07
2023-03-12T09:29:11.721Z,3.10
2023-03-12T09:31:38.479Z,4.05
2023-03-12T09:34:05.496Z,4.20
2023-03-12T09:36:32.835Z,3.78
2023-03-12T09:38:59.755Z,3.53
2023-03-12T09:41:30.384Z,4.00
2023-03-12T09:44:09.291Z,3.47
2023-03-12T09:46:47.108Z,3.47
2023-03-12T09:49:49.315Z,3.20
2023-03-12T09:52:32.358Z,3.30
2023-03-12T09:55:17.362Z,2.75
2023-03-12T09:57:45.480Z,3.80
2023-03-12T10:00:24.030Z,3.45
2023-03-12T10:02:59.032Z,4.35
2023-03-12T10:05:34.922Z,4.85
2023-03-12T10:08:23.121Z,3.95
2023-03-12T10:10:56.893Z,4.30
2023-03-12T10:13:44.442Z,4.07
2023-03-12T10:16:37.864Z,3.05
2023-03-12T10:19:36.919Z,4.30
2023-03-12T10:22:27.485Z,4.18
2023-03-12T10:25:12.669Z,2.78
2023-03-12T10:27:41.268Z,4.05
2023-03-12T10:30:20.027Z,3.83
2023-03-12T10:32:53.748Z,3.30
2023-03-12T10:35:23.603Z,3.80
2023-03-12T10:37:54.363Z,13.48
2023-03-12T10:40:30.285Z,3.42
2023-03-12T10:42:57.051Z,2.90
2023-03-12T10:45:46.155Z,3.45
2023-03-12T10:48:20.443Z,3.15
2023-03-12T10:51:02.162Z,2.83
2023-03-12T10:53:32.327Z,2.83
2023-03-12T10:56:25.188Z,3.05
2023-03-12T10:58:54.046Z,2.42
2023-03-12T11:01:27.393Z,2.53
2023-03-12T11:04:18.869Z,2.28
2023-03-12T11:07:16.771Z,2.60
2023-03-12T11:09:44.973Z,3.80
2023-03-12T11:12:30.879Z,3.47
2023-03-12T11:14:58.936Z,3.75
2023-03-12T11:17:28.367Z,3.20
2023-03-12T11:19:55.337Z,2.30
2023-03-12T11:22:35.276Z,2.75
2023-03-12T11:25:06.394Z,2.78
2023-03-12T11:27:44.280Z,2.90
2023-03-12T11:30:15.572Z,2.50
2023-03-12T11:32:46.649Z,2.30
2023-03-12T11:35:16.157Z,2.20
2023-03-12T11:38:09.580Z,2.88
2023-03-12T11:40:55.034Z,6.85
2023-03-12T11:43:42.829Z,3.80
2023-03-12T11:46:40.807Z,5.13
2023-03-12T11:49:23.809Z,4.53
2023-03-12T11:52:11.621Z,4.50
2023-03-12T11:54:48.297Z,4.03
2023-03-12T11:57:21.014Z,3.53
2023-03-12T12:00:12.758Z,4.07
2023-03-12T12:02:54.760Z,3.75
2023-03-12T12:05:32.611Z,2.80
2023-03-12T12:08:37.051Z,1.92
2023-03-12T12:11:09.508Z,3.05
2023-03-12T12:14:13.478Z,3.20
2023-03-12T12:16:43.086Z,3.47
2023-03-12T12:19:21.919Z,3.42
2023-03-12T12:22:22.624Z,3.70
2023-03-12T12:25:21.859Z,2.87
2023-03-12T12:27:56.240Z,2.92
2023-03-12T12:30:53.141Z,4.32
2023-03-12T12:33:47.475Z,4.63
2023-03-12T12:36:14.744Z,4.00
2023-03-12T12:38:55.216Z,3.88
2023-03-12T12:41:26.659Z,4.03
2023-03-12T12:43:58.066Z,3.83
2023-03-12T12:46:41.575Z,4.45
2023-03-12T12:49:24.601Z,3.53
2023-03-12T12:51:57.344Z,4.60
2023-03-12T12:54:35.673Z,4.75
2023-03-12T12:57:16.747Z,3.92
2023-03-12T12:59:52.187Z,4.53
2023-03-12T13:02:26.482Z,4.82
2023-03-12T13:04:57.889Z,15.23
2023-03-12T13:09:57.100Z,4.20
2023-03-12T13:12:47.672Z,4.88
2023-03-12T13:15:29.377Z,4.60
2023-03-12T13:17:58.947Z,3.97
2023-03-12T13:20:43.186Z,4.00
2023-03-12T13:23:47.093Z,3.50
2023-03-12T13:26:19.578Z,3.60
2023-03-12T13:28:56.704Z,4.72
2023-03-12T13:31:29.467Z,7.47
2023-03-12T13:34:20.017Z,4.50
2023-03-12T13:36:50.426Z,9.68
2023-03-12T13:39:17.261Z,3.35
2023-03-12T13:41:54.914Z,3.55
2023-03-12T13:44:27.428Z,3.83
2023-03-12T13:47:10.539Z,3.05
2023-03-12T13:49:42.763Z,3.10
2023-03-12T13:52:20.973Z,3.10
2023-03-12T13:55:13.822Z,2.53
2023-03-12T13:57:51.113Z,2.50
2023-03-12T14:00:40.455Z,2.88
2023-03-12T14:03:49.702Z,1.98
2023-03-12T14:06:24.442Z,2.15
2023-03-12T14:08:57.223Z,2.10
2023-03-12T14:11:42.175Z,2.33
2023-03-12T14:14:31.190Z,2.70
2023-03-12T14:17:03.951Z,1.60
2023-03-12T14:19:33.936Z,1.30
2023-03-12T14:22:07.330Z,1.20
2023-03-12T14:24:40.949Z,1.40
2023-03-12T14:27:17.785Z,1.10
2023-03-12T14:29:58.604Z,1.13
2023-03-12T14:32:32.084Z,1.50
2023-03-12T14:35:20.694Z,0.88
2023-03-12T14:37:59.721Z,1.20
2023-03-12T14:40:57.924Z,1.00
2023-03-12T14:43:30.252Z,0.90
2023-03-12T14:46:02.545Z,0.80
2023-03-12T14:48:32.102Z,1.17
2023-03-12T14:50:59.883Z,0.80
2023-03-12T14:53:30.311Z,0.90
2023-03-12T14:56:07.685Z,0.87
2023-03-12T14:58:42.175Z,0.70
2023-03-12T15:01:14.369Z,0.60
2023-03-12T15:03:45.451Z,0.47
2023-03-12T15:06:19.916Z,0.57
2023-03-12T15:08:46.659Z,0.63
2023-03-12T15:11:13.379Z,1.25
2023-03-12T15:13:40.186Z,1.05
2023-03-12T15:16:07.745Z,1.23
2023-03-12T15:18:34.779Z,1.50
2023-03-12T15:21:03.073Z,1.10
2023-03-12T15:23:32.568Z,1.55
2023-03-12T15:26:33.244Z,1.45
2023-03-12T15:29:14.158Z,1.17
2023-03-12T15:31:46.848Z,1.70
2023-03-12T15:34:27.970Z,1.35
2023-03-12T15:36:55.025Z,0.98
2023-03-12T15:39:26.559Z,1.63
2023-03-12T15:41:55.094Z,1.50
2023-03-12T15:44:48.145Z,1.67
2023-03-12T15:47:18.780Z,1.33
2023-03-12T15:49:52.846Z,2.10
2023-03-12T15:52:19.829Z,1.52
2023-03-12T15:55:01.576Z,1.42
2023-03-12T15:57:29.783Z,1.30
2023-03-12T16:00:18.753Z,1.50
2023-03-12T16:03:06.030Z,1.48
2023-03-12T16:05:39.049Z,1.50
2023-03-12T16:08:21.562Z,1.52
2023-03-12T16:10:50.084Z,1.73
2023-03-12T16:13:20.252Z,3.72
2023-03-12T16:15:48.121Z,3.20
2023-03-12T16:18:18.132Z,2.90
2023-03-12T16:20:46.084Z,2.10
2023-03-12T16:23:13.501Z,1.95
2023-03-12T16:25:43.722Z,1.77
2023-03-12T16:28:14.265Z,3.70
2023-03-12T16:30:41.284Z,1.92
2023-03-12T16:33:09.479Z,2.20
2023-03-12T16:35:36.516Z,2.22
2023-03-12T16:38:03.786Z,3.30
2023-03-12T16:40:34.259Z,3.50
2023-03-12T16:43:06.742Z,2.38
2023-03-12T16:45:35.997Z,3.67
2023-03-12T16:48:05.901Z,2.95
2023-03-12T16:50:32.675Z,7.03
2023-03-12T16:52:59.778Z,5.25
2023-03-12T16:55:30.119Z,4.65
2023-03-12T16:58:00.345Z,5.05
2023-03-12T17:00:30.452Z,6.45
2023-03-12T17:02:58.257Z,5.90
2023-03-12T17:05:26.942Z,4.43
2023-03-12T17:07:55.504Z,3.70
2023-03-12T17:10:23.109Z,4.22
2023-03-12T17:12:50.819Z,4.38
2023-03-12T17:15:21.636Z,5.90
2023-03-12T17:17:49.737Z,4.38
2023-03-12T17:20:19.026Z,5.18
2023-03-12T17:22:46.175Z,4.63
2023-03-12T17:25:25.997Z,3.65
2023-03-12T17:27:53.336Z,3.00
2023-03-12T17:30:22.150Z,3.78
2023-03-12T17:32:50.459Z,7.55
2023-03-12T17:35:18.351Z,4.32
2023-03-12T17:37:45.830Z,3.72
2023-03-12T17:40:13.023Z,2.65
2023-03-12T17:42:39.727Z,3.20
2023-03-12T17:45:09.074Z,2.65
2023-03-12T17:47:36.440Z,3.90
2023-03-12T17:50:04.727Z,2.95
2023-03-12T17:52:32.290Z,3.30
2023-03-12T17:54:59.023Z,3.50
2023-03-12T17:57:25.781Z,4.40
2023-03-12T17:59:52.858Z,3.45
2023-03-12T18:02:19.970Z,3.70
2023-03-12T18:04:46.692Z,4.45
2023-03-12T18:07:13.458Z,5.85
2023-03-12T18:09:40.144Z,5.88
2023-03-12T18:12:07.229Z,5.13
2023-03-12T18:14:34.318Z,6.50
2023-03-12T18:17:01.164Z,6.15
2023-03-12T18:19:29.334Z,4.25
2023-03-12T18:21:56.342Z,6.20
2023-03-12T18:24:23.016Z,4.15
2023-03-12T18:26:51.630Z,5.03
2023-03-12T18:29:18.511Z,7.13
2023-03-12T18:31:45.283Z,3.58
2023-03-12T18:34:11.988Z,3.78
2023-03-12T18:36:38.789Z,4.65
2023-03-12T18:39:06.528Z,5.63
2023-03-12T18:41:33.546Z,4.68
2023-03-12T18:44:00.710Z,4.47
2023-03-12T18:46:28.288Z,8.18
2023-03-12T18:48:54.986Z,6.40
2023-03-12T18:51:22.331Z,6.60
2023-03-12T18:53:48.998Z,4.68
2023-03-12T18:56:15.787Z,5.03
2023-03-12T18:58:42.680Z,2.88
2023-03-12T19:01:09.454Z,3.67
2023-03-12T19:03:36.538Z,3.20
2023-03-12T19:06:08.312Z,3.03
2023-03-12T19:08:37.257Z,2.00
2023-03-12T19:11:09.552Z,2.75
2023-03-12T19:13:36.616Z,4.38
2023-03-12T19:16:08.428Z,1.88
2023-03-12T19:18:36.238Z,1.90
2023-03-12T19:21:03.559Z,2.70
2023-03-12T19:23:30.395Z,3.55
2023-03-12T19:25:57.012Z,5.10
2023-03-12T19:28:23.791Z,8.57
2023-03-12T19:30:50.510Z,5.47
2023-03-12T19:33:17.245Z,6.35
2023-03-12T19:35:44.027Z,5.82
2023-03-12T19:38:10.837Z,6.20
2023-03-12T19:40:37.524Z,5.05
2023-03-12T19:43:04.348Z,4.32
2023-03-12T19:45:31.250Z,4.25
2023-03-12T19:47:57.965Z,3.33
2023-03-12T19:50:24.720Z,2.80
2023-03-12T19:52:51.500Z,2.53
2023-03-12T19:55:18.227Z,1.80
2023-03-12T19:57:46.391Z,1.02
2023-03-12T20:00:13.398Z,3.28
2023-03-12T20:02:40.343Z,1.23
2023-03-12T20:05:08.419Z,1.13
2023-03-12T20:07:35.642Z,1.00
2023-03-12T20:10:02.458Z,0.88
2023-03-12T20:12:29.243Z,1.02
2023-03-12T20:14:55.895Z,0.75
2023-03-12T20:17:22.732Z,1.30
2023-03-12T20:19:49.388Z,1.95
2023-03-12T20:22:16.095Z,2.30
2023-03-12T20:24:42.723Z,2.60
2023-03-12T20:27:09.531Z,2.83
2023-03-12T20:29:36.217Z,2.08
2023-03-12T20:32:03.023Z,1.23
2023-03-12T20:34:29.795Z,0.90
2023-03-12T20:36:58.001Z,0.90
2023-03-12T20:39:24.722Z,8.93
2023-03-12T20:41:51.458Z,3.25
2023-03-12T20:44:18.498Z,1.20
2023-03-12T20:46:47.013Z,1.00
2023-03-12T20:49:14.467Z,1.17
2023-03-12T20:51:42.740Z,1.38
2023-03-12T20:54:09.514Z,0.93
2023-03-12T20:56:36.743Z,0.90
2023-03-12T20:59:03.413Z,1.10
2023-03-12T21:01:30.246Z,1.70
2023-03-12T21:03:58.358Z,1.23
2023-03-12T21:06:26.807Z,1.40
2023-03-12T21:08:57.183Z,0.93
2023-03-12T21:11:24.875Z,0.80
2023-03-12T21:13:51.626Z,0.90
2023-03-12T21:16:18.715Z,0.90
2023-03-12T21:18:45.552Z,1.08
2023-03-12T21:21:12.523Z,1.60
2023-03-12T21:23:39.315Z,1.73
2023-03-12T21:26:09.416Z,1.65
2023-03-12T21:28:36.707Z,2.90
2023-03-12T21:31:06.008Z,2.70
2023-03-12T21:33:32.917Z,3.20
2023-03-12T21:35:59.722Z,2.50
2023-03-12T21:38:26.450Z,2.47
2023-03-12T21:40:54.247Z,2.75
2023-03-12T21:43:20.999Z,3.55
2023-03-12T21:45:47.697Z,3.83
2023-03-12T21:48:14.651Z,7.22
2023-03-12T21:50:41.314Z,6.03
2023-03-12T21:53:22.857Z,7.68
2023-03-12T21:55:57.612Z,6.20
2023-03-12T21:58:24.437Z,5.32
2023-03-12T22:00:51.523Z,5.07
2023-03-12T22:03:18.549Z,6.25
2023-03-12T22:05:51.602Z,6.65
2023-03-12T22:08:18.351Z,5.53
2023-03-12T22:10:45.308Z,6.15
2023-03-12T22:13:12.071Z,4.88
2023-03-12T22:15:39.048Z,5.45
2023-03-12T22:18:05.857Z,4.65
2023-03-12T22:20:39.465Z,5.32
2023-03-12T22:23:06.198Z,3.75
2023-03-12T22:25:35.382Z,4.43
2023-03-12T22:28:02.210Z,4.80
2023-03-12T22:30:28.881Z,4.88
2023-03-12T22:32:57.802Z,4.82
2023-03-12T22:35:27.094Z,3.30
2023-03-12T22:37:54.366Z,3.88
2023-03-12T22:40:21.096Z,3.53
2023-03-12T22:42:52.840Z,4.53
2023-03-12T22:45:20.108Z,4.53
2023-03-12T22:47:46.828Z,3.75
2023-03-12T22:50:13.802Z,5.72
2023-03-12T22:52:40.507Z,4.13
2023-03-12T22:55:07.692Z,4.45
2023-03-12T22:57:35.532Z,4.57
2023-03-12T23:00:05.961Z,6.07
2023-03-12T23:02:32.662Z,5.77
2023-03-12T23:04:59.727Z,7.18
2023-03-12T23:07:26.492Z,9.07
2023-03-12T23:09:53.221Z,9.10
2023-03-12T23:12:19.976Z,7.50
2023-03-12T23:14:46.732Z,7.55
2023-03-12T23:17:13.566Z,9.25
2023-03-12T23:19:42.854Z,6.80
2023-03-12T23:22:10.725Z,7.63
2023-03-12T23:24:37.561Z,8.43
2023-03-12T23:27:04.839Z,7.28
2023-03-12T23:29:32.300Z,7.20
2023-03-12T23:31:59.452Z,6.35
2023-03-12T23:34:26.640Z,6.80
2023-03-12T23:36:53.557Z,7.15
2023-03-12T23:39:20.244Z,5.95
2023-03-12T23:41:47.038Z,6.25
2023-03-12T23:44:13.804Z,6.40
2023-03-12T23:46:40.492Z,6.32
2023-03-12T23:49:07.201Z,5.47
2023-03-12T23:51:34.146Z,5.22
2023-03-12T23:54:05.526Z,5.03
2023-03-12T23:56:35.535Z,5.03
2023-03-12T23:59:03.493Z,4.93
